Centennial Heights, Michigan
Current Conditions -  °F | °C
As of 2:03 AM on Monday 22 Dec 2014 (Local Time) from KCMX Reporting Station
Haze Haze  
Wind Chill: 26°   Ceiling: 200
Heat Index: 32°   Visibility: 1.5mi
Dew Point: 31°   Wind: 7mph
Humidity: 96%   Direction: 150°SSE
Pressure: 29.83"   Gusts: NA
Location:  47.2401°N, 88.4308°W
Report Text: KCMX 220703Z AUTO 15006KT 1 1/2SM BR BKN002 OVC011 00/M01 A2983 RMK AO2 T00001006
Loading
Personal Weather Stations






























Interactive Weather Map New forecast layout! Learn more

10-Day Weather Forecast

Advertisements
Track Severe Weather on mobile